Terminal Aerodrome Forecast
Issued by NWS Sioux Falls, SD

Home | Current Version | Previous Version | Text Only | Print | Product List | Glossary Off
Versions: 1 2 3 4 5 6 7 8 9 10 11 12 13 14 15 16 17 18 19 20 21 22 23 24 25 26 27 28 29 30 31 32 33 34 35 36 37 38 39 40 41 42 43 44 45

000
FTUS43 KFSD 020520
TAFSUX
TAF
KSUX 020520Z 0206/0306 36004KT P6SM SCT060 BKN200
     FM021400 35010KT P6SM -SHRA SCT015 OVC050
      TEMPO 0215/0218 4SM -SHRA OVC010
     FM021900 34010KT P6SM SCT020 BKN100=

USA.gov is the U.S. government's official web portal to all federal, state and local government web resources and services.